createdAt,value
2023-02-13T00:01:30.986Z,-2.24
2023-02-13T00:04:04.288Z,-2.36
2023-02-13T00:06:36.719Z,-2.36
2023-02-13T00:09:10.472Z,-2.46
2023-02-13T00:11:42.989Z,-2.36
2023-02-13T00:14:15.655Z,-2.28
2023-02-13T00:16:48.990Z,-2.25
2023-02-13T00:19:21.709Z,-2.26
2023-02-13T00:21:54.145Z,-2.27
2023-02-13T00:24:26.893Z,-2.31
2023-02-13T00:26:59.313Z,-2.33
2023-02-13T00:29:32.913Z,-2.31
2023-02-13T00:32:06.311Z,-2.35
2023-02-13T00:34:38.930Z,-2.36
2023-02-13T00:37:11.522Z,-2.41
2023-02-13T00:39:44.003Z,-2.43
2023-02-13T00:42:16.543Z,-2.46
2023-02-13T00:44:50.336Z,-2.49
2023-02-13T00:47:23.551Z,-2.60
2023-02-13T00:49:56.234Z,-2.70
2023-02-13T00:52:28.644Z,-2.71
2023-02-13T00:55:01.648Z,-2.92
2023-02-13T00:57:34.218Z,-2.92
2023-02-13T01:00:08.137Z,-2.93
2023-02-13T01:02:41.283Z,-2.92
2023-02-13T01:05:14.317Z,-2.87
2023-02-13T01:07:46.703Z,-2.90
2023-02-13T01:10:19.378Z,-2.99
2023-02-13T01:12:52.031Z,-2.97
2023-02-13T01:15:24.761Z,-3.04
2023-02-13T01:18:00.189Z,-2.99
2023-02-13T01:20:33.265Z,-2.98
2023-02-13T01:23:05.758Z,-2.95
2023-02-13T01:25:40.431Z,-2.92
2023-02-13T01:28:12.967Z,-2.91
2023-02-13T01:30:45.695Z,-2.96
2023-02-13T01:33:18.838Z,-2.91
2023-02-13T01:35:51.971Z,-2.90
2023-02-13T01:38:24.505Z,-2.90
2023-02-13T01:40:57.319Z,-2.85
2023-02-13T01:43:45.145Z,-2.88
2023-02-13T01:46:23.282Z,-2.85
2023-02-13T01:49:03.101Z,-2.88
2023-02-13T01:51:36.922Z,-2.83
2023-02-13T01:54:13.937Z,-2.80
2023-02-13T01:56:49.520Z,-2.77
2023-02-13T01:59:26.269Z,-2.77
2023-02-13T02:02:01.201Z,-2.77
2023-02-13T02:04:37.849Z,-2.98
2023-02-13T02:07:20.383Z,-3.01
2023-02-13T02:10:01.933Z,-3.08
2023-02-13T02:12:42.350Z,-3.03
2023-02-13T02:15:16.524Z,-3.03
2023-02-13T02:17:49.144Z,-3.03
2023-02-13T02:20:39.238Z,-3.03
2023-02-13T02:23:38.493Z,-3.08
2023-02-13T02:26:45.849Z,-3.07
2023-02-13T02:29:40.186Z,-3.15
2023-02-13T02:32:24.549Z,-3.12
2023-02-13T02:35:07.791Z,-3.11
2023-02-13T02:38:01.411Z,-3.08
2023-02-13T02:40:43.056Z,-3.04
2023-02-13T02:43:28.541Z,-2.95
2023-02-13T02:46:11.659Z,-3.01
2023-02-13T02:49:08.980Z,-2.94
2023-02-13T02:51:54.461Z,-2.90
2023-02-13T02:54:50.791Z,-2.85
2023-02-13T02:57:47.404Z,-2.78
2023-02-13T03:00:42.367Z,-2.78
2023-02-13T03:03:36.717Z,-2.75
2023-02-13T03:06:15.125Z,-2.67
2023-02-13T03:09:12.260Z,-2.82
2023-02-13T03:12:08.666Z,-2.65
2023-02-13T03:14:42.234Z,-2.60
2023-02-13T03:17:35.691Z,-2.61
2023-02-13T03:20:33.806Z,-2.63
2023-02-13T03:23:13.953Z,-2.61
2023-02-13T03:26:07.230Z,-2.67
2023-02-13T03:29:08.029Z,-2.60
2023-02-13T03:31:49.421Z,-2.62
2023-02-13T03:34:25.256Z,-2.66
2023-02-13T03:37:19.606Z,-2.57
2023-02-13T03:40:01.078Z,-2.51
2023-02-13T03:42:37.041Z,-2.56
2023-02-13T03:45:32.434Z,-2.51
2023-02-13T03:48:29.361Z,-2.50
2023-02-13T03:51:03.486Z,-2.54
2023-02-13T03:53:39.548Z,-2.58
2023-02-13T03:56:32.759Z,-2.55
2023-02-13T03:59:15.854Z,-2.59
2023-02-13T04:01:59.391Z,-2.60
2023-02-13T04:04:40.184Z,-2.59
2023-02-13T04:07:28.612Z,-2.70
2023-02-13T04:10:05.574Z,-2.68
2023-02-13T04:12:48.657Z,-2.61
2023-02-13T04:15:27.596Z,-2.53
2023-02-13T04:18:09.629Z,-2.47
2023-02-13T04:20:43.632Z,-2.46
2023-02-13T04:23:16.326Z,-2.43
2023-02-13T04:25:51.942Z,-2.37
2023-02-13T04:28:25.187Z,-2.38
2023-02-13T04:30:58.132Z,-2.38
2023-02-13T04:33:30.697Z,-2.37
2023-02-13T04:36:03.617Z,-2.33
2023-02-13T04:38:36.106Z,-2.31
2023-02-13T04:41:08.494Z,-2.25
2023-02-13T04:43:41.656Z,-2.28
2023-02-13T04:46:14.138Z,-2.31
2023-02-13T04:48:46.811Z,-2.26
2023-02-13T04:51:19.430Z,-2.30
2023-02-13T04:53:51.792Z,-2.31
2023-02-13T04:56:24.216Z,-2.26
2023-02-13T04:58:57.213Z,-2.24
2023-02-13T05:01:29.925Z,-2.23
2023-02-13T05:04:02.460Z,-2.21
2023-02-13T05:06:34.789Z,-2.20
2023-02-13T05:09:07.199Z,-2.17
2023-02-13T05:11:39.559Z,-2.21
2023-02-13T05:14:12.892Z,-2.18
2023-02-13T05:16:45.385Z,-2.12
2023-02-13T05:19:17.828Z,-2.13
2023-02-13T05:22:08.640Z,-2.18
2023-02-13T05:24:41.374Z,-2.24
2023-02-13T05:27:13.947Z,-2.27
2023-02-13T05:29:47.031Z,-2.24
2023-02-13T05:32:19.495Z,-2.30
2023-02-13T05:34:51.915Z,-2.25
2023-02-13T05:37:24.369Z,-2.24
2023-02-13T05:39:56.727Z,-2.25
2023-02-13T05:42:29.150Z,-2.22
2023-02-13T05:45:02.784Z,-2.22
2023-02-13T05:47:35.586Z,-2.20
2023-02-13T05:50:08.625Z,-2.16
2023-02-13T05:52:41.010Z,-2.21
2023-02-13T05:55:13.530Z,-2.15
2023-02-13T05:57:45.991Z,-2.18
2023-02-13T06:00:20.774Z,-2.15
2023-02-13T06:02:53.139Z,-2.23
2023-02-13T06:05:25.827Z,-2.24
2023-02-13T06:07:58.170Z,-2.28
2023-02-13T06:10:31.122Z,-2.30
2023-02-13T06:13:03.552Z,-2.31
2023-02-13T06:15:36.876Z,-2.36
2023-02-13T06:18:09.257Z,-2.35
2023-02-13T06:20:41.891Z,-2.32
2023-02-13T06:23:14.475Z,-2.33
2023-02-13T06:25:47.074Z,-2.39
2023-02-13T06:28:19.813Z,-2.34
2023-02-13T06:30:53.005Z,-2.34
2023-02-13T06:33:25.437Z,-2.28
2023-02-13T06:35:57.849Z,-2.23
2023-02-13T06:38:31.372Z,-2.20
2023-02-13T06:41:04.014Z,-2.11
2023-02-13T06:43:37.778Z,-2.05
2023-02-13T06:46:12.441Z,-2.03
2023-02-13T06:48:44.873Z,-2.00
2023-02-13T06:51:17.308Z,-2.02
2023-02-13T06:53:49.859Z,-2.02
2023-02-13T06:56:22.306Z,-2.10
2023-02-13T06:58:54.654Z,-2.09
2023-02-13T07:01:27.869Z,-2.11
2023-02-13T07:04:00.274Z,-2.08
2023-02-13T07:06:33.582Z,-2.08
2023-02-13T07:09:06.174Z,-1.95
2023-02-13T07:11:39.110Z,-2.02
2023-02-13T07:14:11.465Z,-2.14
2023-02-13T07:16:44.580Z,-1.97
2023-02-13T07:19:17.140Z,-1.87
2023-02-13T07:21:49.929Z,-1.78
2023-02-13T07:24:22.504Z,-1.67
2023-02-13T07:26:55.130Z,-1.68
2023-02-13T07:29:27.771Z,-1.57
2023-02-13T07:32:01.650Z,-1.53
2023-02-13T07:34:34.269Z,-1.41
2023-02-13T07:37:06.761Z,-1.43
2023-02-13T07:39:39.409Z,-1.49
2023-02-13T07:42:11.986Z,-1.45
2023-02-13T07:44:44.510Z,-1.42
2023-02-13T07:47:19.780Z,-1.22
2023-02-13T07:49:54.146Z,-1.13
2023-02-13T07:52:26.594Z,-1.12
2023-02-13T07:54:59.075Z,-1.10
2023-02-13T07:57:31.622Z,-0.96
2023-02-13T08:00:05.328Z,-0.88
2023-02-13T08:02:45.077Z,-0.80
2023-02-13T08:05:17.902Z,-0.64
2023-02-13T08:07:50.269Z,-0.48
2023-02-13T08:10:41.557Z,-0.34
2023-02-13T08:13:15.560Z,-0.24
2023-02-13T08:15:48.572Z,-0.22
2023-02-13T08:18:21.731Z,-0.42
2023-02-13T08:20:54.134Z,-0.22
2023-02-13T08:23:26.597Z,-0.31
2023-02-13T08:26:01.315Z,-0.16
2023-02-13T08:28:35.318Z,-0.13
2023-02-13T08:31:11.854Z,-0.05
2023-02-13T08:33:45.104Z,-0.02
2023-02-13T08:36:18.952Z,-0.10
2023-02-13T08:38:51.328Z,-0.01
2023-02-13T08:41:23.821Z,0.07
2023-02-13T08:43:56.208Z,0.11
2023-02-13T08:46:28.853Z,0.16
2023-02-13T08:49:01.904Z,0.22
2023-02-13T08:51:34.465Z,0.27
2023-02-13T08:54:06.836Z,0.31
2023-02-13T08:56:39.431Z,0.28
2023-02-13T08:59:11.885Z,0.34
2023-02-13T09:01:44.295Z,0.33
2023-02-13T09:04:17.930Z,0.52
2023-02-13T09:06:50.603Z,0.58
2023-02-13T09:09:23.187Z,0.71
2023-02-13T09:11:57.297Z,0.57
2023-02-13T09:14:29.847Z,0.83
2023-02-13T09:17:02.384Z,0.78
2023-02-13T09:19:35.710Z,0.96
2023-02-13T09:22:08.080Z,1.21
2023-02-13T09:24:40.720Z,1.36
2023-02-13T09:27:13.389Z,1.63
2023-02-13T09:29:46.405Z,1.69
2023-02-13T09:32:18.849Z,1.77
2023-02-13T09:34:51.932Z,1.81
2023-02-13T09:37:24.457Z,1.82
2023-02-13T09:39:56.848Z,1.80
2023-02-13T09:42:32.877Z,1.82
2023-02-13T09:45:07.897Z,1.94
2023-02-13T09:47:42.512Z,2.08
2023-02-13T09:50:21.693Z,1.71
2023-02-13T09:52:56.610Z,1.91
2023-02-13T09:55:46.636Z,2.03
2023-02-13T09:58:27.828Z,2.30
2023-02-13T10:01:04.312Z,2.37
2023-02-13T10:03:44.311Z,2.54
2023-02-13T10:06:24.891Z,2.79
2023-02-13T10:09:10.008Z,2.84
2023-02-13T10:12:05.764Z,2.72
2023-02-13T10:14:47.489Z,2.83
2023-02-13T10:17:26.526Z,2.89
2023-02-13T10:20:03.275Z,3.06
2023-02-13T10:22:41.156Z,2.94
2023-02-13T10:25:20.974Z,3.09
2023-02-13T10:27:57.990Z,3.16
2023-02-13T10:30:32.580Z,3.29
2023-02-13T10:33:21.043Z,3.21
2023-02-13T10:35:59.162Z,3.48
2023-02-13T10:38:35.470Z,3.51
2023-02-13T10:41:31.249Z,3.66
2023-02-13T10:44:19.316Z,3.71
2023-02-13T10:47:01.464Z,3.70
2023-02-13T10:49:47.481Z,3.75
2023-02-13T10:52:32.878Z,3.78
2023-02-13T10:55:28.882Z,3.76
2023-02-13T10:58:12.673Z,3.92
2023-02-13T11:00:49.856Z,3.92
2023-02-13T11:03:24.441Z,4.05
2023-02-13T11:05:59.253Z,4.09
2023-02-13T11:08:34.742Z,4.16
2023-02-13T11:11:29.283Z,4.22
2023-02-13T11:14:11.084Z,4.06
2023-02-13T11:16:53.335Z,4.24
2023-02-13T11:19:30.506Z,4.39
2023-02-13T11:22:06.591Z,4.58
2023-02-13T11:24:41.273Z,4.15
2023-02-13T11:27:14.451Z,4.33
2023-02-13T11:29:55.429Z,4.26
2023-02-13T11:32:30.029Z,4.26
2023-02-13T11:35:27.107Z,4.37
2023-02-13T11:38:20.194Z,4.28
2023-02-13T11:41:06.886Z,4.53
2023-02-13T11:43:47.814Z,4.69
2023-02-13T11:46:22.237Z,4.87
2023-02-13T11:49:01.442Z,5.00
2023-02-13T11:51:40.137Z,5.22
2023-02-13T11:54:30.484Z,5.33
2023-02-13T11:57:16.861Z,5.13
2023-02-13T11:59:52.186Z,5.32
2023-02-13T12:02:26.571Z,5.11
2023-02-13T12:05:17.611Z,5.23
2023-02-13T12:07:50.890Z,5.13
2023-02-13T12:10:26.801Z,5.46
2023-02-13T12:13:06.104Z,5.33
2023-02-13T12:15:40.166Z,5.33
2023-02-13T12:18:18.889Z,5.50
2023-02-13T12:20:59.362Z,5.64
2023-02-13T12:23:45.521Z,5.78
2023-02-13T12:26:30.061Z,5.91
2023-02-13T12:29:28.865Z,6.04
2023-02-13T12:32:15.218Z,6.21
2023-02-13T12:35:21.250Z,6.38
2023-02-13T12:38:01.341Z,6.44
2023-02-13T12:41:07.665Z,6.49
2023-02-13T12:44:21.533Z,6.62
2023-02-13T12:47:07.334Z,6.67
2023-02-13T12:49:59.801Z,6.43
2023-02-13T12:52:45.955Z,6.30
2023-02-13T12:55:47.542Z,6.35
2023-02-13T12:58:40.340Z,6.64
2023-02-13T13:01:22.396Z,6.87
2023-02-13T13:04:08.986Z,7.04
2023-02-13T13:06:56.298Z,6.99
2023-02-13T13:09:59.553Z,6.91
2023-02-13T13:12:45.633Z,6.96
2023-02-13T13:15:31.418Z,7.25
2023-02-13T13:18:18.038Z,7.27
2023-02-13T13:21:01.032Z,7.39
2023-02-13T13:23:37.178Z,7.14
2023-02-13T13:26:20.694Z,6.61
2023-02-13T13:28:55.607Z,6.74
2023-02-13T13:31:28.491Z,6.48
2023-02-13T13:34:11.760Z,6.44
2023-02-13T13:36:48.594Z,6.57
2023-02-13T13:39:36.971Z,6.69
2023-02-13T13:42:16.364Z,6.63
2023-02-13T13:45:08.435Z,6.44
2023-02-13T13:47:51.959Z,6.22
2023-02-13T13:50:26.241Z,5.80
2023-02-13T13:53:11.004Z,5.70
2023-02-13T13:56:07.885Z,5.59
2023-02-13T13:58:42.985Z,5.41
2023-02-13T14:01:17.607Z,5.26
2023-02-13T14:03:52.661Z,5.20
2023-02-13T14:06:27.481Z,5.18
2023-02-13T14:09:07.914Z,5.30
2023-02-13T14:11:45.833Z,5.26
2023-02-13T14:14:52.716Z,5.35
2023-02-13T14:17:53.868Z,5.22
2023-02-13T14:20:34.709Z,5.21
2023-02-13T14:23:33.480Z,5.03
2023-02-13T14:26:22.100Z,4.83
2023-02-13T14:29:05.113Z,5.00
2023-02-13T14:31:40.489Z,5.06
2023-02-13T14:34:28.307Z,5.07
2023-02-13T14:37:23.788Z,5.05
2023-02-13T14:40:41.213Z,5.00
2023-02-13T14:43:32.963Z,4.91
2023-02-13T14:46:24.426Z,4.84
2023-02-13T14:49:01.816Z,4.78
2023-02-13T14:51:38.065Z,4.82
2023-02-13T14:54:20.513Z,4.80
2023-02-13T14:56:59.161Z,4.88
2023-02-13T14:59:36.808Z,4.87
2023-02-13T15:02:18.545Z,4.90
2023-02-13T15:04:56.944Z,4.93
2023-02-13T15:07:34.090Z,4.92
2023-02-13T15:10:33.592Z,4.92
2023-02-13T15:13:13.456Z,4.84
2023-02-13T15:15:53.050Z,4.81
2023-02-13T15:18:28.025Z,4.75
2023-02-13T15:21:02.296Z,4.75
2023-02-13T15:23:34.766Z,4.70
2023-02-13T15:26:08.335Z,4.79
2023-02-13T15:28:40.884Z,4.71
2023-02-13T15:31:24.000Z,4.78
2023-02-13T15:33:58.108Z,4.75
2023-02-13T15:36:35.549Z,4.62
2023-02-13T15:39:17.992Z,4.71
2023-02-13T15:41:53.067Z,4.59
2023-02-13T15:44:28.734Z,4.56
2023-02-13T15:47:07.241Z,4.37
2023-02-13T15:49:44.968Z,4.29
2023-02-13T15:52:21.405Z,4.23
2023-02-13T15:54:55.585Z,4.20
2023-02-13T15:57:28.592Z,4.11
2023-02-13T16:00:02.646Z,4.10
2023-02-13T16:02:47.216Z,4.03
2023-02-13T16:05:37.472Z,3.97
2023-02-13T16:08:27.747Z,3.92
2023-02-13T16:11:17.633Z,3.83
2023-02-13T16:14:16.921Z,3.72
2023-02-13T16:16:52.601Z,3.67
2023-02-13T16:19:31.098Z,3.53
2023-02-13T16:22:20.078Z,3.41
2023-02-13T16:24:54.309Z,3.29
2023-02-13T16:27:28.027Z,3.24
2023-02-13T16:30:03.569Z,3.06
2023-02-13T16:32:38.140Z,3.01
2023-02-13T16:35:37.197Z,2.98
2023-02-13T16:38:29.779Z,2.89
2023-02-13T16:41:05.246Z,2.78
2023-02-13T16:43:44.508Z,2.66
2023-02-13T16:46:32.637Z,2.51
2023-02-13T16:49:23.615Z,2.32
2023-02-13T16:52:01.009Z,2.30
2023-02-13T16:54:46.014Z,2.27
2023-02-13T16:57:22.369Z,2.11
2023-02-13T17:00:03.614Z,2.05
2023-02-13T17:02:37.481Z,2.08
2023-02-13T17:05:20.073Z,2.14
2023-02-13T17:07:56.404Z,2.11
2023-02-13T17:10:32.880Z,2.06
2023-02-13T17:13:14.312Z,2.07
2023-02-13T17:15:48.020Z,2.08
2023-02-13T17:18:20.691Z,2.09
2023-02-13T17:20:53.849Z,2.10
2023-02-13T17:23:26.998Z,2.06
2023-02-13T17:25:59.423Z,2.03
2023-02-13T17:28:31.970Z,1.95
2023-02-13T17:31:09.824Z,1.96
2023-02-13T17:33:44.276Z,1.98
2023-02-13T17:36:16.643Z,1.95
2023-02-13T17:38:49.899Z,1.71
2023-02-13T17:41:22.539Z,1.68
2023-02-13T17:43:54.929Z,1.67
2023-02-13T17:46:27.383Z,1.66
2023-02-13T17:48:59.881Z,1.59
2023-02-13T17:51:32.627Z,1.57
2023-02-13T17:54:05.723Z,1.57
2023-02-13T17:56:38.118Z,1.49
2023-02-13T17:59:10.474Z,1.37
2023-02-13T18:01:42.891Z,1.34
2023-02-13T18:04:15.714Z,1.13
2023-02-13T18:06:51.698Z,1.11
2023-02-13T18:09:24.765Z,1.11
2023-02-13T18:12:05.428Z,1.07
2023-02-13T18:14:37.916Z,1.00
2023-02-13T18:17:10.760Z,1.01
2023-02-13T18:19:43.508Z,1.01
2023-02-13T18:22:16.107Z,0.95
2023-02-13T18:24:49.404Z,0.92
2023-02-13T18:27:22.526Z,0.95
2023-02-13T18:29:55.319Z,0.84
2023-02-13T18:32:28.096Z,0.78
2023-02-13T18:35:01.796Z,0.79
2023-02-13T18:37:34.408Z,0.65
2023-02-13T18:40:08.819Z,0.60
2023-02-13T18:42:41.434Z,0.52
2023-02-13T18:45:13.802Z,0.52
2023-02-13T18:47:46.210Z,0.54
2023-02-13T18:50:20.028Z,0.57
2023-02-13T18:52:52.412Z,0.57
2023-02-13T18:55:25.888Z,0.56
2023-02-13T18:57:58.740Z,0.15
2023-02-13T19:00:31.196Z,0.25
2023-02-13T19:03:03.626Z,0.23
2023-02-13T19:05:40.337Z,0.24
2023-02-13T19:08:14.071Z,0.30
2023-02-13T19:10:47.161Z,0.25
2023-02-13T19:13:19.687Z,0.16
2023-02-13T19:15:52.204Z,0.05
2023-02-13T19:18:24.698Z,0.09
2023-02-13T19:20:59.469Z,0.02
2023-02-13T19:23:32.115Z,0.02
2023-02-13T19:26:06.333Z,0.04
2023-02-13T19:28:39.022Z,0.08
2023-02-13T19:31:14.717Z,0.06
2023-02-13T19:33:48.655Z,0.01
2023-02-13T19:36:23.460Z,0.02
2023-02-13T19:38:57.739Z,0.01
2023-02-13T19:41:32.259Z,0.01
2023-02-13T19:44:04.892Z,0.04
2023-02-13T19:46:37.782Z,0.04
2023-02-13T19:49:10.251Z,-0.01
2023-02-13T19:51:45.407Z,0.02
2023-02-13T19:54:17.760Z,-0.01
2023-02-13T19:56:50.961Z,-0.07
2023-02-13T19:59:23.278Z,-0.08
2023-02-13T20:01:55.721Z,-0.09
2023-02-13T20:04:28.113Z,-0.12
2023-02-13T20:07:01.164Z,-0.17
2023-02-13T20:09:34.781Z,-0.21
2023-02-13T20:12:07.922Z,-0.24
2023-02-13T20:14:40.326Z,-0.23
2023-02-13T20:17:12.725Z,-0.19
2023-02-13T20:19:46.892Z,-0.19
2023-02-13T20:22:19.382Z,-0.20
2023-02-13T20:24:54.627Z,-0.26
2023-02-13T20:27:27.781Z,-0.58
2023-02-13T20:30:06.589Z,-0.62
2023-02-13T20:32:41.033Z,-0.55
2023-02-13T20:35:13.299Z,-0.51
2023-02-13T20:37:45.738Z,-0.49
2023-02-13T20:40:18.257Z,-0.49
2023-02-13T20:42:51.298Z,-0.44
2023-02-13T20:45:23.912Z,-0.39
2023-02-13T20:47:56.327Z,-0.41
2023-02-13T20:50:28.896Z,-0.48
2023-02-13T20:53:01.354Z,-0.36
2023-02-13T20:55:33.744Z,-0.43
2023-02-13T20:58:06.898Z,-0.51
2023-02-13T21:00:39.324Z,-0.50
2023-02-13T21:03:11.767Z,-0.44
2023-02-13T21:05:44.848Z,-0.32
2023-02-13T21:08:17.330Z,-0.34
2023-02-13T21:10:49.737Z,-0.37
2023-02-13T21:13:22.766Z,-0.59
2023-02-13T21:16:02.465Z,-0.47
2023-02-13T21:18:34.687Z,-0.37
2023-02-13T21:21:09.163Z,-0.31
2023-02-13T21:23:41.652Z,-0.43
2023-02-13T21:26:16.716Z,-0.60
2023-02-13T21:28:50.580Z,-0.53
2023-02-13T21:31:27.158Z,-0.46
2023-02-13T21:34:02.349Z,-0.34
2023-02-13T21:36:36.475Z,-0.32
2023-02-13T21:39:10.616Z,-0.32
2023-02-13T21:41:44.706Z,-0.18
2023-02-13T21:44:17.904Z,-0.16
2023-02-13T21:46:50.552Z,-0.07
2023-02-13T21:49:24.392Z,-0.03
2023-02-13T21:51:56.897Z,0.01
2023-02-13T21:54:29.261Z,0.06
2023-02-13T21:57:02.003Z,0.09
2023-02-13T21:59:35.072Z,0.08
2023-02-13T22:02:07.576Z,0.07
2023-02-13T22:04:40.745Z,0.13
2023-02-13T22:07:13.086Z,0.09
2023-02-13T22:09:45.463Z,0.09
2023-02-13T22:12:17.824Z,0.06
2023-02-13T22:14:51.058Z,0.12
2023-02-13T22:17:23.601Z,0.11
2023-02-13T22:19:56.021Z,0.09
2023-02-13T22:22:28.319Z,0.07
2023-02-13T22:25:01.275Z,0.20
2023-02-13T22:27:34.149Z,0.27
2023-02-13T22:30:08.427Z,0.27
2023-02-13T22:32:41.499Z,0.22
2023-02-13T22:35:13.888Z,0.27
2023-02-13T22:37:46.281Z,0.32
2023-02-13T22:40:18.999Z,0.35
2023-02-13T22:42:51.941Z,0.34
2023-02-13T22:45:25.154Z,0.39
2023-02-13T22:47:57.892Z,0.39
2023-02-13T22:50:30.816Z,0.38
2023-02-13T22:53:03.372Z,0.41
2023-02-13T22:55:35.737Z,0.36
2023-02-13T22:58:08.054Z,0.18
2023-02-13T23:00:41.246Z,0.18
2023-02-13T23:03:14.510Z,0.13
2023-02-13T23:05:47.079Z,0.14
2023-02-13T23:08:19.592Z,0.00
2023-02-13T23:11:06.704Z,0.07
2023-02-13T23:13:39.073Z,0.13
2023-02-13T23:16:13.432Z,0.18
2023-02-13T23:18:50.849Z,0.21
2023-02-13T23:21:23.734Z,0.24
2023-02-13T23:23:56.102Z,0.34
2023-02-13T23:26:28.529Z,0.34
2023-02-13T23:29:00.893Z,0.38
2023-02-13T23:31:33.990Z,0.31
2023-02-13T23:34:06.503Z,0.31
2023-02-13T23:36:38.964Z,0.23
2023-02-13T23:39:11.372Z,-0.04
2023-02-13T23:41:43.791Z,-0.10
2023-02-13T23:44:16.211Z,0.01
2023-02-13T23:46:49.376Z,0.03
2023-02-13T23:49:22.058Z,0.04
2023-02-13T23:51:54.597Z,0.03
2023-02-13T23:54:27.079Z,-0.01
2023-02-13T23:56:59.800Z,-0.06
2023-02-13T23:59:32.847Z,-0.11
